Data for 07/19/2007

Time Sea-Level Adjusted Pressure Absolute Pressure Temperature Relative Humidity Dew Point   
(mb) (inHg) (mb) (inHg) (C) (F) (%) (C) (F)
00:05 1015 29.97 844 24.92 25.1 77.3 47 13.3 55.9
00:10 1015 29.97 845 24.95 25.1 77.1 48 13.4 56.1
00:15 1015 29.97 844 24.92 25 77 48 13.4 56.1
00:20 1015 29.97 845 24.95 25 77 48 13.4 56.2
00:25 1015 29.97 844 24.92 24.9 76.9 49 13.5 56.3
00:30 1015 29.97 844 24.92 25 76.9 48 13.5 56.3
00:35 1015 29.97 844 24.92 24.8 76.7 49 13.7 56.6
00:40 1015 29.97 845 24.95 24.7 76.5 50 13.8 56.8
00:45 1015 29.97 844 24.92 24.6 76.3 51 13.8 56.9
00:50 1015 29.97 844 24.92 24.5 76 51 13.9 57
00:55 1015 29.97 845 24.95 24.3 75.7 52 13.9 57.1
01:00 1015 29.97 845 24.95 24.2 75.5 52 13.9 57
01:05 1015 29.97 844 24.92 24.1 75.4 53 14 57.2
01:10 1015 29.97 844 24.92 24 75.3 53 13.9 57.1
01:15 1015 29.97 844 24.92 24 75.1 53 14 57.2
01:20 1015 29.97 844 24.92 23.9 75 54 14.1 57.3
01:25 1015 29.97 844 24.92 23.8 74.8 54 14 57.3
01:30 1015 29.97 844 24.92 23.7 74.7 54 14.2 57.5
01:35 1015 29.97 844 24.92 23.7 74.6 55 14.1 57.5
01:40 1015 29.97 844 24.92 23.5 74.4 55 14.2 57.5
01:45 1015 29.97 844 24.92 23.4 74.2 56 14.2 57.6
01:50 1015 29.97 844 24.92 23.3 73.9 56 14.3 57.7
01:55 1015 29.97 844 24.92 23.2 73.7 57 14.3 57.7
02:00 1015 29.97 844 24.92 23.1 73.6 57 14.3 57.7
02:05 1015 29.97 844 24.92 23 73.4 57 14.3 57.7
02:10 1015 29.97 844 24.92 22.9 73.2 57 14.2 57.5
02:15 1015 29.97 844 24.92 22.8 73.1 58 14.2 57.6
02:20 1015 29.97 844 24.92 22.8 73 58 14.2 57.6
02:25 1015 29.97 844 24.92 22.7 72.9 58 14.2 57.6
02:30 1015 29.97 844 24.92 22.7 72.8 58 14.2 57.6
02:35 1015 29.97 844 24.92 22.6 72.7 59 14.2 57.6
02:40 1015 29.97 844 24.92 22.5 72.6 59 14.2 57.5
02:45 1015 29.97 844 24.92 22.5 72.5 59 14.2 57.5
02:50 1015 29.97 844 24.92 22.4 72.3 59 14.2 57.6
02:55 1015 29.97 844 24.92 22.3 72.1 59 14.1 57.4
03:00 1015 29.97 845 24.95 22.2 72 60 14.3 57.7
03:05 1015 29.97 845 24.95 22.2 71.9 60 14.1 57.4
03:10 1015 29.97 844 24.92 22.2 72 60 14.1 57.4
03:15 1015 29.97 844 24.92 22.2 72 60 14.1 57.4
03:20 1015 29.97 844 24.92 22.3 72.1 60 14.2 57.5
03:25 1015 29.97 844 24.92 22.2 71.9 60 14.1 57.3
03:30 1015 29.97 844 24.92 22.2 71.9 60 14.1 57.5
03:35 1015 29.97 844 24.92 22 71.7 61 14.2 57.6
03:40 1015 29.97 844 24.92 21.9 71.4 61 14.1 57.4
03:45 1015 29.97 844 24.92 21.9 71.4 61 14.1 57.4
03:50 1015 29.97 844 24.92 21.9 71.4 61 14.1 57.4
03:55 1015 29.97 844 24.92 22 71.5 61 14.1 57.4
04:00 1015 29.97 844 24.92 21.9 71.4 61 14.2 57.5
04:05 1015 29.97 844 24.92 21.8 71.2 61 14.1 57.4
04:10 1015 29.97 844 24.92 21.7 71.1 62 14.2 57.5
04:15 1015 29.97 844 24.92 21.5 70.8 62 14.2 57.5
04:20 1015 29.97 844 24.92 21.5 70.7 62 14.1 57.4
04:25 1015 29.97 844 24.92 21.4 70.6 62 14 57.2
04:30 1015 29.97 844 24.92 21.5 70.7 62 14.1 57.4
04:35 1015 29.97 844 24.92 21.4 70.5 62 14 57.1
04:40 1015 29.97 844 24.92 21.4 70.5 62 14 57.2
04:45 1015 29.97 844 24.92 21.3 70.3 62 13.9 57.1
04:50 1015 29.97 844 24.92 21.3 70.4 62 13.9 57
04:55 1015 29.97 844 24.92 21.3 70.3 63 14 57.2
05:00 1015 29.97 844 24.92 21.2 70.1 62 13.8 56.8
05:05 1014 29.94 844 24.92 21.2 70.1 62 13.7 56.7
05:10 1014 29.94 844 24.92 21.4 70.4 61 13.7 56.7
05:15 1014 29.94 844 24.92 21.4 70.5 61 13.6 56.4
05:20 1014 29.94 844 24.92 21.3 70.4 61 13.5 56.3
05:25 1014 29.94 844 24.92 21.5 70.7 61 13.7 56.6
05:30 1014 29.94 844 24.92 21.3 70.4 62 13.8 56.8
05:35 1014 29.94 844 24.92 21.3 70.3 61 13.6 56.6
05:40 1014 29.94 844 24.92 21.4 70.5 60 13.5 56.3
05:45 1015 29.97 844 24.92 21.5 70.8 59 13.3 56
05:50 1014 29.94 844 24.92 21.6 70.8 59 13.3 56
05:55 1014 29.94 844 24.92 21.7 71 59 13.4 56.1
06:00 1014 29.94 844 24.92 21.5 70.8 60 13.5 56.3
06:05 1014 29.94 844 24.92 21.5 70.6 60 13.4 56.1
06:10 1014 29.94 844 24.92 21.5 70.6 59 13.2 55.8
06:15 1014 29.94 844 24.92 21.6 70.8 59 13.3 56
06:20 1014 29.94 844 24.92 21.4 70.5 58 13 55.5
06:25 1014 29.94 844 24.92 21.5 70.7 58 13.1 55.6
06:30 1015 29.97 844 24.92 21.5 70.6 59 13.2 55.8
06:35 1014 29.94 844 24.92 21.5 70.7 58 13 55.5
06:40 1015 29.97 844 24.92 21.7 71.1 58 13.2 55.7
06:45 1015 29.97 844 24.92 21.9 71.4 58 13.3 55.9
06:50 1015 29.97 844 24.92 21.9 71.5 57 13.2 55.8
06:55 1015 29.97 844 24.92 22.1 71.7 57 13.3 55.9
07:00 1015 29.97 844 24.92 22.2 71.9 56 13.2 55.7
07:05 1015 29.97 844 24.92 22.2 72 57 13.5 56.2
07:10 1015 29.97 844 24.92 22 71.6 57 13.3 56
07:15 1015 29.97 844 24.92 21.9 71.4 58 13.3 56
07:20 1015 29.97 844 24.92 21.9 71.4 58 13.3 55.9
07:25 1015 29.97 844 24.92 22 71.6 57 13.1 55.6
07:30 1015 29.97 844 24.92 22.1 71.8 56 13 55.5
07:35 1015 29.97 844 24.92 22.2 71.9 55 12.9 55.3
07:40 1015 29.97 844 24.92 22.3 72.2 55 13 55.4
07:45 1015 29.97 844 24.92 22.4 72.2 56 13.3 55.9
07:50 1015 29.97 844 24.92 22.2 72 57 13.5 56.3
07:55 1015 29.97 844 24.92 22.1 71.8 57 13.4 56.2
08:00 1015 29.97 844 24.92 22.3 72.1 56 13.3 55.9
08:05 1015 29.97 844 24.92 22.5 72.4 55 13 55.5
08:10 1015 29.97 844 24.92 22.7 72.9 52 12.7 54.8
08:15 1015 29.97 844 24.92 23 73.4 51 12.5 54.5
08:20 1015 29.97 844 24.92 23.2 73.8 51 12.6 54.6
08:25 1015 29.97 844 24.92 23.3 74 51 12.7 54.8
08:30 1015 29.97 844 24.92 23.4 74.1 49 12.4 54.2
08:35 1015 29.97 844 24.92 23.7 74.6 48 12.2 54
08:40 1015 29.97 844 24.92 24 75.2 48 12.6 54.6
08:45 1015 29.97 844 24.92 23.9 75.1 49 12.6 54.7
08:50 1015 29.97 844 24.92 23.9 75 49 12.6 54.7
08:55 1015 29.97 844 24.92 23.9 74.9 49 12.7 54.9
09:00 1015 29.97 844 24.92 23.8 74.8 49 12.7 54.9
09:05 1015 29.97 844 24.92 24.1 75.3 48 12.5 54.4
09:10 1015 29.97 844 24.92 24.5 76.2 47 12.7 54.9
09:15 1015 29.97 844 24.92 25.1 77.1 46 12.8 55
09:20 1015 29.97 844 24.92 25.6 78.1 44 12.5 54.5
09:25 1015 29.97 844 24.92 26.1 78.9 42 12.3 54.1
09:30 1015 29.97 844 24.92 26.5 79.8 40 12.2 53.9
09:35 1015 29.97 844 24.92 26.9 80.5 38 11.8 53.2
09:40 1015 29.97 844 24.92 27.1 80.8 38 11.8 53.2
09:45 1015 29.97 844 24.92 27.4 81.4 35 10.9 51.6
09:50 1015 29.97 844 24.92 27.9 82.1 36 11.5 52.7
09:55 1015 29.97 844 24.92 28.1 82.7 35 11.6 52.8
10:00 1015 29.97 844 24.92 28.3 82.9 33 11 51.7
10:05 1015 29.97 844 24.92 28.6 83.4 33 11 51.8
10:10 1015 29.97 844 24.92 28.6 83.5 33 10.9 51.7
10:15 1015 29.97 844 24.92 29 84.2 32 10.8 51.5
10:20 1015 29.97 844 24.92 29.2 84.5 31 10.8 51.4
10:25 1015 29.97 844 24.92 29.5 85.2 30 10.7 51.2
10:30 1015 29.97 844 24.92 29.6 85.4 30 10.7 51.3
10:35 1015 29.97 844 24.92 29.9 85.8 30 10.9 51.6
10:40 1015 29.97 844 24.92 30.3 86.5 28 10.1 50.2
10:45 1015 29.97 844 24.92 30.7 87.2 28 10.2 50.3
10:50 1015 29.97 844 24.92 30.8 87.5 29 11 51.9
10:55 1015 29.97 844 24.92 30.9 87.6 27 10.3 50.5
11:00 1015 29.97 844 24.92 31 87.8 26 9.8 49.7
11:05 1015 29.97 844 24.92 31.3 88.4 25 9.4 49
11:10 1015 29.97 844 24.92 31.8 89.2 25 9.5 49.1
11:15 1015 29.97 844 24.92 31.8 89.3 23 8.5 47.3
11:20 1015 29.97 844 24.92 32.1 89.8 23 8.6 47.4
11:25 1015 29.97 844 24.92 32.2 89.9 21 7.3 45.2
11:30 1015 29.97 844 24.92 32.1 89.8 20 7 44.5
11:35 1015 29.97 844 24.92 33.3 91.9 18 6.3 43.4
11:40 1015 29.97 844 24.92 33.1 91.6 19 6.7 44.1
11:45 1015 29.97 844 24.92 32.3 90.1 19 5.9 42.6
11:50 1015 29.97 844 24.92 32.9 91.3 18 5.5 42
11:55 1015 29.97 844 24.92 33.4 92.2 16 4.4 40
12:00 1015 29.97 844 24.92 33.3 91.9 20 7.9 46.3
12:05 1015 29.97 844 24.92 33.7 92.6 18 6.3 43.3
12:10 1015 29.97 844 24.92 34.4 94 16 5 41.1
12:15 1015 29.97 844 24.92 34.7 94.5 15 4.3 39.8
12:20 1014 29.94 844 24.92 33.7 92.7 12 1.3 34.3
12:25 1014 29.94 844 24.92 33.6 92.4 15 3.7 38.6
12:30 1014 29.94 844 24.92 33.4 92.2 11 -0.3 31.4
12:35 1014 29.94 843 24.89 33.5 92.2 13 1.4 34.6
12:40 1014 29.94 843 24.89 33.6 92.5 12 0.9 33.5
12:45 1014 29.94 843 24.89 33.4 92.1 12 0.6 33.2
12:50 1014 29.94 843 24.89 33.4 92.2 12 0.2 32.3
12:55 1014 29.94 843 24.89 33.7 92.7 13 1.7 35
13:00 1014 29.94 843 24.89 33.6 92.5 12 0.9 33.6
13:05 1014 29.94 843 24.89 33.5 92.2 11 -0.2 31.7
13:10 1014 29.94 843 24.89 33.7 92.6 12 0.9 33.7
13:15 1014 29.94 843 24.89 33.8 92.8 11 0.1 32.2
13:20 1014 29.94 843 24.89 33.7 92.6 12 0.2 32.3
13:25 1014 29.94 843 24.89 33.8 92.9 12 0.7 33.3
13:30 1014 29.94 843 24.89 34.2 93.5 12 1.1 34
13:35 1014 29.94 843 24.89 34.3 93.7 11 -0.3 31.5
13:40 1014 29.94 843 24.89 34 93.3 10 -2.1 28.1
13:45 1014 29.94 843 24.89 34.1 93.5 10 -1 30.2
13:50 1014 29.94 843 24.89 34.2 93.5 11 -0.3 31.5
13:55 1014 29.94 843 24.89 34.1 93.4 11 -0.7 30.7
14:00 1014 29.94 843 24.89 34.3 93.8 9 -2.6 27.4
14:05 1014 29.94 843 24.89 34.1 93.4 10 -1.9 28.7
14:10 1014 29.94 843 24.89 34.2 93.5 10 -1.7 29
14:15 1014 29.94 843 24.89 34.3 93.8 12 1.3 34.3
14:20 1014 29.94 843 24.89 34.5 94.1 10 -0.9 30.4
14:25 1014 29.94 843 24.89 34.6 94.2 9 -1.9 28.5
14:30 1014 29.94 843 24.89 34.8 94.7 9 -2 28.5
14:35 1014 29.94 843 24.89 34.6 94.3 11 0.3 32.5
14:40 1014 29.94 843 24.89 34.8 94.7 10 -0.8 30.6
14:45 1014 29.94 843 24.89 35.3 95.5 9 -1.6 29.1
14:50 1014 29.94 843 24.89 35.4 95.7 9 -1.5 29.3
14:55 1014 29.94 843 24.89 35 95 10 -1.3 29.6
15:00 1014 29.94 843 24.89 34.7 94.4 11 -0.1 31.8
15:05 1014 29.94 843 24.89 34.7 94.5 10 -1.3 29.6
15:10 1014 29.94 843 24.89 34.8 94.6 10 -0.6 30.9
15:15 1014 29.94 843 24.89 34.9 94.7 9 -2 28.4
15:20 1014 29.94 843 24.89 34.9 94.9 10 -1.1 30
15:25 1014 29.94 843 24.89 35.2 95.4 10 -0.6 31
15:30 1014 29.94 843 24.89 35.4 95.7 10 -0.6 31
15:35 1014 29.94 843 24.89 35.1 95.3 10 -0.8 30.5
15:40 1014 29.94 843 24.89 35 95.1 10 -1.1 30.1
15:45 1014 29.94 843 24.89 35.3 95.5 10 -0.7 30.8
15:50 1014 29.94 843 24.89 35.1 95.3 10 -1.1 30
15:55 1014 29.94 843 24.89 35.4 95.8 11 1.2 34.1
16:00 1014 29.94 843 24.89 35 95 11 0.4 32.7
16:05 1014 29.94 843 24.89 34.7 94.4 11 0.2 32.3
16:10 1014 29.94 843 24.89 34.8 94.6 10 -0.9 30.5
16:15 1013 29.91 843 24.89 34.9 94.9 9 -2.1 28.3
16:20 1013 29.91 843 24.89 34.9 94.8 9 -2.1 28.3
16:25 1013 29.91 843 24.89 35 94.9 10 -1.1 30
16:30 1013 29.91 843 24.89 35 95.1 9 -1.8 28.8
16:35 1013 29.91 843 24.89 35.1 95.2 9 -2 28.5
16:40 1013 29.91 843 24.89 35.1 95.2 9 -1.7 29
16:45 1013 29.91 843 24.89 34.8 94.7 11 0.2 32.4
16:50 1013 29.91 843 24.89 34.9 94.8 10 -0.1 31.7
16:55 1013 29.91 843 24.89 34.7 94.5 10 -0.9 30.3
17:00 1013 29.91 842 24.86 34.5 94.1 9 -2 28.4
17:05 1013 29.91 843 24.89 34.5 94.2 11 -0.3 31.5
17:10 1013 29.91 843 24.89 34.7 94.5 10 -0.9 30.4
17:15 1013 29.91 842 24.86 34.4 93.9 9 -2.3 27.8
17:20 1013 29.91 842 24.86 34.5 94 9 -2.1 28.1
17:25 1013 29.91 842 24.86 34.7 94.4 11 0.3 32.5
17:30 1013 29.91 842 24.86 34.8 94.7 10 -0.8 30.5
17:35 1013 29.91 842 24.86 34.8 94.6 9 -2 28.5
17:40 1013 29.91 842 24.86 34.5 94 9 -2.5 27.5
17:45 1013 29.91 842 24.86 34.2 93.6 10 -1.7 28.9
17:50 1013 29.91 842 24.86 34.2 93.5 8 -3.5 25.6
17:55 1013 29.91 842 24.86 34.5 94.1 9 -2.8 27
18:00 1013 29.91 842 24.86 34.6 94.3 9 -2 28.4
18:05 1013 29.91 842 24.86 34.6 94.2 9 -3.2 26.3
18:10 1013 29.91 842 24.86 34.8 94.6 9 -1.7 29
18:15 1013 29.91 842 24.86 34.9 94.7 9 -2 28.3
18:20 1013 29.91 842 24.86 35 95 9 -2 28.4
18:25 1013 29.91 842 24.86 35.2 95.3 10 -0.6 31
18:30 1013 29.91 842 24.86 34.9 94.9 10 -0.1 31.8
18:35 1013 29.91 842 24.86 34.7 94.5 10 -0.6 30.9
18:40 1013 29.91 842 24.86 34.8 94.6 10 -1.2 29.9
18:45 1013 29.91 842 24.86 34.5 94.1 10 -0.9 30.3
18:50 1013 29.91 842 24.86 34.6 94.3 10 -0.6 30.9
18:55 1013 29.91 842 24.86 34.3 93.7 11 0.3 32.5
19:00 1013 29.91 842 24.86 34.1 93.4 11 0.3 32.5
19:05 1013 29.91 842 24.86 34 93.3 11 -0.5 31.2
19:10 1013 29.91 842 24.86 33.9 93 11 0.1 32.1
19:15 1013 29.91 842 24.86 33.7 92.6 12 0.5 32.8
19:20 1013 29.91 842 24.86 33.4 92.1 12 0.3 32.6
19:25 1013 29.91 842 24.86 33.1 91.6 11 -0.4 31.3
19:30 1013 29.91 842 24.86 32.9 91.1 12 0.2 32.4
19:35 1013 29.91 842 24.86 32.4 90.4 13 0.8 33.5
19:40 1013 29.91 842 24.86 32.4 90.2 13 0.8 33.5
19:45 1013 29.91 842 24.86 32 89.6 14 1.6 34.8
19:50 1013 29.91 842 24.86 31.9 89.4 13 0.3 32.5
19:55 1013 29.91 842 24.86 32 89.6 14 1.4 34.6
20:00 1013 29.91 842 24.86 31.4 88.6 15 1.7 35
20:05 1013 29.91 842 24.86 30.8 87.5 15 1.2 34.1
20:10 1013 29.91 842 24.86 30.6 87.1 15 1.7 35.1
20:15 1013 29.91 842 24.86 30.4 86.8 15 1.2 34.1
20:20 1013 29.91 842 24.86 30.4 86.7 16 2 35.5
20:25 1013 29.91 842 24.86 30 85.9 16 1.4 34.5
20:30 1013 29.91 842 24.86 30 86 15 1.2 34.2
20:35 1013 29.91 842 24.86 30.1 86.1 15 1 33.8
20:40 1013 29.91 842 24.86 30 86 14 -0.1 31.9
20:45 1013 29.91 842 24.86 30.1 86.2 13 -0.8 30.5
20:50 1013 29.91 842 24.86 30.7 87.3 13 -0.9 30.3
20:55 1013 29.91 842 24.86 30.4 86.6 15 1.4 34.5
21:00 1013 29.91 843 24.89 29.1 84.3 16 0.9 33.6
21:05 1013 29.91 843 24.89 28.7 83.7 16 0.5 33
21:10 1013 29.91 843 24.89 28.7 83.6 16 0.8 33.5
21:15 1013 29.91 843 24.89 28.6 83.5 15 0 32.1
21:20 1014 29.94 843 24.89 28.6 83.4 15 0.2 32.3
21:25 1014 29.94 843 24.89 28.1 82.5 16 0.5 32.9
21:30 1014 29.94 843 24.89 27.6 81.7 21 3.3 38
21:35 1014 29.94 843 24.89 26 78.9 27 5.6 42.1
21:40 1014 29.94 843 24.89 24.2 75.5 31 6.2 43.2
21:45 1014 29.94 843 24.89 23.7 74.6 30 5.2 41.4
21:50 1014 29.94 843 24.89 23.6 74.4 29 4.8 40.6
21:55 1014 29.94 843 24.89 23.4 74.1 31 5.5 42
22:00 1014 29.94 843 24.89 23 73.3 32 5.4 41.7
22:05 1014 29.94 843 24.89 22.8 73 31 4.9 40.9
22:10 1014 29.94 843 24.89 22.9 73.2 29 4.1 39.5
22:15 1014 29.94 844 24.92 23.4 74 25 2.3 36.2
22:20 1014 29.94 844 24.92 24.3 75.7 24 2.5 36.6
22:25 1015 29.97 844 24.92 24.5 76.1 24 2.6 36.7
22:30 1015 29.97 844 24.92 24.9 76.7 22 2.2 35.9
22:35 1015 29.97 844 24.92 25 76.9 23 2.4 36.2
22:40 1015 29.97 844 24.92 24.7 76.4 22 2 35.6
22:45 1015 29.97 844 24.92 24.7 76.4 25 3.3 38
22:50 1015 29.97 844 24.92 24.7 76.4 23 2.7 36.9
22:55 1015 29.97 844 24.92 24.7 76.5 28 5 41
23:00 1015 29.97 844 24.92 24.2 75.6 23 2.2 35.9
23:05 1015 29.97 844 24.92 23.6 74.4 28 4 39.3
23:10 1015 29.97 844 24.92 23 73.4 31 5 40.9
23:15 1015 29.97 844 24.92 22.7 72.9 29 4 39.2
23:20 1015 29.97 844 24.92 22.8 73 31 5 41.1
23:25 1015 29.97 844 24.92 22.5 72.4 28 3.5 38.2
23:30 1015 29.97 844 24.92 22.1 71.8 28 3.1 37.5
23:35 1015 29.97 844 24.92 22.1 71.7 28 2.7 36.9
23:40 1015 29.97 844 24.92 22.3 72.1 25 1.7 35
23:45 1015 29.97 844 24.92 22.4 72.4 25 1.5 34.8
23:50 1015 29.97 844 24.92 22.4 72.3 24 1.3 34.3
23:55 1015 29.97 844 24.92 22.7 72.9 24 1.1 34
24:00 1015 29.97 844 24.92 22.5 72.6 25 1.5 34.6